Time;durP1;ratioP1;P1;durP2;ratioP2;P2;SDS_P1;SDS_P2;PMS_P1;PMS_P2;Temp;Humidity;BMP_temperature;BMP_pressure;BME280_temperature;BME280_humidity;BME280_pressure;Samples;Min_cycle;Max_cycle;Signal;HPM_P1;HPM_P2
2021/10/03 00:01:27;;;;;;;;;;;11.10;99.90;;;;;;5046791;28;19909;-80
2021/10/03 00:03:54;;;;;;;;;;;11.10;99.90;;;;;;5047970;28;19917;-81
2021/10/03 00:06:20;;;;;;;;;;;11.10;99.90;;;;;;5047023;28;19908;-80
2021/10/03 00:08:45;;;;;;;;;;;11.00;99.90;;;;;;5048499;28;19908;-81
2021/10/03 00:11:11;;;;;;;;;;;11.00;99.90;;;;;;5048631;28;19911;-82
2021/10/03 00:13:37;;;;;;;;;;;11.00;99.90;;;;;;5062925;28;19940;-81
2021/10/03 00:16:03;;;;;;;;;;;11.00;99.90;;;;;;5063742;28;19951;-81
2021/10/03 00:18:29;;;;;;;;;;;11.10;99.90;;;;;;5046781;28;19948;-80
2021/10/03 00:20:57;;;;;;;;;;;11.10;99.90;;;;;;5048041;28;19994;-80
2021/10/03 00:23:22;;;;;;;;;;;11.20;99.90;;;;;;5048046;28;19979;-81
2021/10/03 00:25:48;;;;;;;;;;;11.20;99.90;;;;;;5063443;28;20029;-81
2021/10/03 00:28:14;;;;;;;;;;;11.20;99.90;;;;;;5063122;28;20148;-81
2021/10/03 00:30:41;;;;;;;;;;;11.20;99.90;;;;;;5063373;28;20530;-80
2021/10/03 00:33:06;;;;;;;;;;;11.20;99.90;;;;;;5062945;28;19909;-80
2021/10/03 00:35:32;;;;;;;;;;;11.10;99.90;;;;;;5047880;28;19918;-80
2021/10/03 00:37:59;;;;;;;;;;;11.20;99.90;;;;;;5047782;28;19955;-82
2021/10/03 00:40:25;;;;;;;;;;;11.50;99.90;;;;;;5047401;28;19924;-81
2021/10/03 00:42:51;;;;;;;;;;;11.60;99.90;;;;;;5062826;28;19986;-80
2021/10/03 00:45:17;;;;;;;;;;;11.60;99.90;;;;;;5063203;28;20373;-80
2021/10/03 00:47:42;;;;;;;;;;;11.60;99.90;;;;;;5062959;28;19916;-80
2021/10/03 00:50:09;;;;;;;;;;;11.50;99.90;;;;;;5047409;28;19909;-80
2021/10/03 00:52:35;;;;;;;;;;;11.50;99.90;;;;;;5047717;28;20391;-80
2021/10/03 00:55:01;;;;;;;;;;;11.50;99.90;;;;;;5046919;28;20381;-81
2021/10/03 00:57:27;;;;;;;;;;;11.30;99.90;;;;;;5047332;28;19954;-81
2021/10/03 00:59:53;;;;;;;;;;;11.20;99.90;;;;;;5062378;28;19912;-80
2021/10/03 01:02:18;;;;;;;;;;;11.10;99.90;;;;;;5047514;28;19947;-81
2021/10/03 01:04:44;;;;;;;;;;;11.00;99.90;;;;;;5047610;28;20334;-80
2021/10/03 01:07:10;;;;;;;;;;;10.90;99.90;;;;;;5047218;28;19939;-80
2021/10/03 01:09:35;;;;;;;;;;;10.80;99.90;;;;;;5046326;28;20300;-79
2021/10/03 01:12:01;;;;;;;;;;;10.70;99.90;;;;;;5045769;28;20605;-79
2021/10/03 01:14:26;;;;;;;;;;;10.60;99.90;;;;;;5046843;28;19915;-79
2021/10/03 01:16:52;;;;;;;;;;;10.60;99.90;;;;;;5045327;28;19909;-79
2021/10/03 01:19:17;;;;;;;;;;;10.50;99.90;;;;;;5047285;28;20358;-78
2021/10/03 01:21:44;;;;;;;;;;;10.50;99.90;;;;;;5062177;28;20684;-80
2021/10/03 01:24:09;;;;;;;;;;;10.50;99.90;;;;;;5047089;28;20015;-79
2021/10/03 01:26:35;;;;;;;;;;;10.50;99.90;;;;;;5046366;28;19999;-80
2021/10/03 01:29:00;;;;;;;;;;;10.50;99.90;;;;;;5046860;28;20396;-79
2021/10/03 01:31:27;;;;;;;;;;;10.50;99.90;;;;;;5046443;28;19923;-79
2021/10/03 01:33:53;;;;;;;;;;;10.50;99.90;;;;;;5045806;28;19967;-79
2021/10/03 01:36:22;;;;;;;;;;;10.40;99.90;;;;;;5046312;28;20404;-79
2021/10/03 01:38:47;;;;;;;;;;;10.50;99.90;;;;;;5046795;28;19916;-79
2021/10/03 01:41:13;;;;;;;;;;;10.50;99.90;;;;;;5061818;28;19917;-79
2021/10/03 01:43:39;;;;;;;;;;;10.60;99.90;;;;;;5046406;28;19917;-80
2021/10/03 01:46:04;;;;;;;;;;;10.70;99.90;;;;;;5062074;28;20400;-80
2021/10/03 01:48:30;;;;;;;;;;;10.60;99.90;;;;;;5046730;28;20003;-80
2021/10/03 01:51:04;;;;;;;;;;;10.60;99.90;;;;;;5045286;28;19912;-80
2021/10/03 01:53:37;;;;;;;;;;;10.60;99.90;;;;;;5045344;28;19972;-80
2021/10/03 01:56:04;;;;;;;;;;;10.60;99.90;;;;;;5046291;28;19917;-80
2021/10/03 01:58:31;;;;;;;;;;;10.60;99.90;;;;;;5045356;28;19915;-80
2021/10/03 02:00:58;;;;;;;;;;;10.80;99.90;;;;;;5044844;28;20511;-79
2021/10/03 02:03:24;;;;;;;;;;;10.90;99.90;;;;;;5046875;28;19916;-80
2021/10/03 02:05:50;;;;;;;;;;;11.00;99.90;;;;;;5048605;28;19908;-80
2021/10/03 02:08:16;;;;;;;;;;;11.10;99.90;;;;;;5049184;28;20677;-79
2021/10/03 02:10:43;;;;;;;;;;;11.20;99.90;;;;;;5050445;28;19916;-80
2021/10/03 02:13:09;;;;;;;;;;;11.20;99.90;;;;;;5050134;28;20007;-79
2021/10/03 02:15:36;;;;;;;;;;;11.30;99.90;;;;;;5065907;28;20027;-80
2021/10/03 02:18:08;;;;;;;;;;;11.20;99.90;;;;;;5065334;28;20443;-80
2021/10/03 02:20:34;;;;;;;;;;;11.20;99.90;;;;;;5065825;28;19912;-80
2021/10/03 02:23:00;;;;;;;;;;;11.20;99.90;;;;;;5065522;28;19909;-80
2021/10/03 02:25:25;;;;;;;;;;;11.20;99.90;;;;;;5065358;28;20506;-80
2021/10/03 02:27:51;;;;;;;;;;;11.10;99.90;;;;;;5049978;28;19920;-80
2021/10/03 02:30:16;;;;;;;;;;;11.10;99.90;;;;;;5048798;28;19916;-79
2021/10/03 02:32:42;;;;;;;;;;;11.00;99.90;;;;;;5064914;28;20023;-80
2021/10/03 02:35:09;;;;;;;;;;;11.10;99.70;;;;;;5049731;28;19913;-80
2021/10/03 02:37:34;;;;;;;;;;;11.00;99.10;;;;;;5049844;28;19909;-78
2021/10/03 02:40:00;;;;;;;;;;;11.00;99.50;;;;;;5048296;28;19920;-79
2021/10/03 02:42:26;;;;;;;;;;;11.00;99.40;;;;;;5050070;28;19912;-80
2021/10/03 02:44:52;;;;;;;;;;;11.00;99.50;;;;;;5048692;28;19912;-81
2021/10/03 02:47:17;;;;;;;;;;;10.90;99.30;;;;;;5050016;28;20435;-80
2021/10/03 02:49:44;;;;;;;;;;;10.90;99.30;;;;;;5064773;28;20361;-81
2021/10/03 02:52:10;;;;;;;;;;;11.00;98.90;;;;;;5049496;28;20430;-80
2021/10/03 02:54:36;;;;;;;;;;;11.10;99.00;;;;;;5049787;28;19913;-80
2021/10/03 02:57:02;;;;;;;;;;;11.10;99.20;;;;;;5064705;28;20331;-80
2021/10/03 02:59:28;;;;;;;;;;;11.00;99.40;;;;;;5065200;28;19931;-81
2021/10/03 03:01:53;;;;;;;;;;;11.00;99.50;;;;;;5049271;28;20409;-81
2021/10/03 03:04:19;;;;;;;;;;;11.00;99.50;;;;;;5049314;28;19995;-80
2021/10/03 03:06:44;;;;;;;;;;;10.90;99.60;;;;;;5049745;28;19934;-81
2021/10/03 03:09:10;;;;;;;;;;;10.80;99.80;;;;;;5047933;28;19909;-79
2021/10/03 03:11:36;;;;;;;;;;;10.80;99.90;;;;;;5064448;28;19931;-80
2021/10/03 03:14:01;;;;;;;;;;;10.70;99.50;;;;;;5049369;28;19916;-80
2021/10/03 03:16:27;;;;;;;;;;;10.70;99.90;;;;;;5063669;28;19966;-81
2021/10/03 03:18:52;;;;;;;;;;;10.70;99.90;;;;;;5049377;28;20070;-79
2021/10/03 03:21:18;;;;;;;;;;;10.70;99.70;;;;;;5064403;28;20369;-79
2021/10/03 03:23:43;;;;;;;;;;;10.70;99.70;;;;;;5048022;28;19909;-80
2021/10/03 03:26:09;;;;;;;;;;;10.70;99.30;;;;;;5063814;28;19932;-80
2021/10/03 03:28:34;;;;;;;;;;;10.80;98.80;;;;;;5064504;28;20361;-81
2021/10/03 03:31:00;;;;;;;;;;;10.90;98.50;;;;;;5048124;28;19912;-81
2021/10/03 03:33:26;;;;;;;;;;;11.00;98.00;;;;;;5064164;28;19916;-81
2021/10/03 03:35:51;;;;;;;;;;;11.10;97.90;;;;;;5049148;28;20408;-80
2021/10/03 03:38:17;;;;;;;;;;;11.10;97.20;;;;;;5048697;28;20407;-80
2021/10/03 03:40:42;;;;;;;;;;;11.20;97.10;;;;;;5048675;28;19916;-84
2021/10/03 03:43:08;;;;;;;;;;;11.20;97.10;;;;;;5048591;28;20388;-81
2021/10/03 03:45:33;;;;;;;;;;;11.30;97.00;;;;;;5047640;28;19960;-81
2021/10/03 03:48:01;;;;;;;;;;;11.20;96.80;;;;;;5047461;28;19995;-81
2021/10/03 03:50:27;;;;;;;;;;;11.30;96.40;;;;;;5048820;28;19920;-81
2021/10/03 03:52:53;;;;;;;;;;;11.20;96.10;;;;;;5048722;28;19924;-82
2021/10/03 03:55:18;;;;;;;;;;;11.30;95.70;;;;;;5048251;28;19915;-81
2021/10/03 03:57:44;;;;;;;;;;;11.30;95.90;;;;;;5047956;28;20403;-84
2021/10/03 04:00:10;;;;;;;;;;;11.30;95.80;;;;;;5048775;28;19995;-79
2021/10/03 04:02:36;;;;;;;;;;;11.40;95.40;;;;;;5064018;28;19947;-80
2021/10/03 04:05:01;;;;;;;;;;;11.40;94.90;;;;;;5048036;28;19952;-80
2021/10/03 04:07:27;;;;;;;;;;;11.50;94.80;;;;;;5067975;28;19909;-80
2021/10/03 04:09:52;;;;;;;;;;;11.50;94.40;;;;;;5048061;28;19970;-79
2021/10/03 04:12:18;;;;;;;;;;;11.50;94.30;;;;;;5047840;28;20015;-81
2021/10/03 04:14:43;;;;;;;;;;;11.50;94.40;;;;;;5048485;28;20507;-80
2021/10/03 04:17:09;;;;;;;;;;;11.50;94.50;;;;;;5063551;28;20700;-80
2021/10/03 04:19:34;;;;;;;;;;;11.50;94.40;;;;;;5047956;28;20267;-80
2021/10/03 04:22:00;;;;;;;;;;;11.50;94.40;;;;;;5063841;28;19946;-81
2021/10/03 04:24:25;;;;;;;;;;;11.50;94.40;;;;;;5047697;28;20399;-80
2021/10/03 04:26:51;;;;;;;;;;;11.50;94.10;;;;;;5063332;28;19913;-80
2021/10/03 04:29:16;;;;;;;;;;;11.60;94.00;;;;;;5045741;28;20399;-80
2021/10/03 04:31:42;;;;;;;;;;;11.60;94.00;;;;;;5047647;28;19904;-80
2021/10/03 04:34:08;;;;;;;;;;;11.50;94.10;;;;;;5046011;28;20401;-80
2021/10/03 04:36:34;;;;;;;;;;;11.50;94.00;;;;;;5047791;28;19967;-79
2021/10/03 04:38:59;;;;;;;;;;;11.50;93.80;;;;;;5046255;28;19924;-81
2021/10/03 04:41:25;;;;;;;;;;;11.50;94.00;;;;;;5046293;28;19908;-79
2021/10/03 04:43:51;;;;;;;;;;;11.40;94.20;;;;;;5062976;28;19908;-81
2021/10/03 04:46:16;;;;;;;;;;;11.40;94.20;;;;;;5046106;28;19909;-80
2021/10/03 04:48:42;;;;;;;;;;;11.40;94.10;;;;;;5047826;28;19917;-80
2021/10/03 04:51:07;;;;;;;;;;;11.50;93.50;;;;;;5047181;28;20402;-80
2021/10/03 04:53:33;;;;;;;;;;;11.50;93.80;;;;;;5045800;28;19970;-80
2021/10/03 04:55:58;;;;;;;;;;;11.50;93.80;;;;;;5047183;28;20067;-80
2021/10/03 04:58:24;;;;;;;;;;;11.50;93.30;;;;;;5046183;28;19908;-81
2021/10/03 05:00:51;;;;;;;;;;;11.50;93.50;;;;;;5047703;28;19909;-80
2021/10/03 05:03:17;;;;;;;;;;;11.50;93.50;;;;;;5047184;28;19915;-79
2021/10/03 05:05:43;;;;;;;;;;;11.50;93.50;;;;;;5062709;28;19912;-80
2021/10/03 05:08:12;;;;;;;;;;;11.60;92.90;;;;;;5046515;28;19923;-80
2021/10/03 05:10:38;;;;;;;;;;;11.70;93.10;;;;;;5046715;28;19908;-80
2021/10/03 05:13:04;;;;;;;;;;;11.70;92.90;;;;;;5045065;28;20281;-79
2021/10/03 05:15:29;;;;;;;;;;;11.60;93.10;;;;;;5046203;28;19961;-80
2021/10/03 05:17:58;;;;;;;;;;;11.70;92.70;;;;;;5045920;28;20262;-78
2021/10/03 05:20:23;;;;;;;;;;;11.70;93.10;;;;;;5046079;28;19935;-79
2021/10/03 05:22:49;;;;;;;;;;;11.70;93.00;;;;;;5044920;28;19909;-81
2021/10/03 05:25:14;;;;;;;;;;;11.70;93.50;;;;;;5045758;28;19909;-81
2021/10/03 05:27:40;;;;;;;;;;;11.60;93.90;;;;;;5045607;28;19909;-80
2021/10/03 05:30:05;;;;;;;;;;;11.60;93.60;;;;;;5045633;28;20530;-80
2021/10/03 05:32:31;;;;;;;;;;;11.60;93.80;;;;;;5045583;28;19959;-80
2021/10/03 05:34:56;;;;;;;;;;;11.60;94.20;;;;;;5045996;28;19993;-81
2021/10/03 05:37:22;;;;;;;;;;;11.60;94.20;;;;;;5046081;28;19977;-80
2021/10/03 05:39:47;;;;;;;;;;;11.60;93.70;;;;;;5060284;28;19925;-79
2021/10/03 05:42:13;;;;;;;;;;;11.70;94.00;;;;;;5044471;28;19919;-79
2021/10/03 05:44:38;;;;;;;;;;;11.70;94.10;;;;;;5061412;28;19915;-81
2021/10/03 05:47:04;;;;;;;;;;;11.80;93.90;;;;;;5046545;28;19996;-79
2021/10/03 05:49:30;;;;;;;;;;;11.80;94.10;;;;;;5061738;28;19909;-81
2021/10/03 05:51:55;;;;;;;;;;;11.90;93.90;;;;;;5046530;28;20003;-79
2021/10/03 05:54:21;;;;;;;;;;;11.90;93.50;;;;;;5060982;28;19917;-78
2021/10/03 05:56:46;;;;;;;;;;;12.00;93.50;;;;;;5046581;28;19908;-79
2021/10/03 05:59:12;;;;;;;;;;;12.20;93.10;;;;;;5044832;28;19958;-80
2021/10/03 06:01:38;;;;;;;;;;;12.20;93.20;;;;;;5046274;28;19908;-79
2021/10/03 06:04:04;;;;;;;;;;;12.40;93.00;;;;;;5046164;28;19905;-78
2021/10/03 06:06:30;;;;;;;;;;;12.60;91.70;;;;;;5046507;28;19916;-78
2021/10/03 06:08:55;;;;;;;;;;;12.70;91.50;;;;;;5045827;28;20464;-78
2021/10/03 06:11:21;;;;;;;;;;;12.90;90.90;;;;;;5044322;28;19908;-80
2021/10/03 06:13:46;;;;;;;;;;;13.20;90.50;;;;;;5044566;28;19923;-82
2021/10/03 06:16:12;;;;;;;;;;;13.40;89.90;;;;;;5044761;28;20003;-80
2021/10/03 06:18:37;;;;;;;;;;;13.60;88.30;;;;;;5061321;28;20320;-81
2021/10/03 06:21:09;;;;;;;;;;;13.80;87.40;;;;;;5045984;28;20369;-79
2021/10/03 06:23:35;;;;;;;;;;;13.90;85.60;;;;;;5044755;28;19982;-78
2021/10/03 06:26:01;;;;;;;;;;;13.90;86.20;;;;;;5045403;28;20320;-79
2021/10/03 06:28:26;;;;;;;;;;;14.10;85.20;;;;;;5046392;28;19915;-81
2021/10/03 06:30:52;;;;;;;;;;;14.40;83.00;;;;;;5046102;28;19908;-80
2021/10/03 06:33:17;;;;;;;;;;;14.90;80.80;;;;;;5046141;28;20377;-80
2021/10/03 06:35:43;;;;;;;;;;;15.30;79.20;;;;;;5046031;28;19909;-81
2021/10/03 06:38:08;;;;;;;;;;;15.80;75.20;;;;;;5045938;28;20914;-80
2021/10/03 06:40:34;;;;;;;;;;;16.00;73.90;;;;;;5061133;28;19908;-80
2021/10/03 06:42:59;;;;;;;;;;;16.20;72.60;;;;;;5044762;28;20362;-81
2021/10/03 06:45:25;;;;;;;;;;;16.40;71.80;;;;;;5046216;28;19909;-80
2021/10/03 06:47:50;;;;;;;;;;;16.70;71.10;;;;;;5045700;28;19909;-81
2021/10/03 06:50:17;;;;;;;;;;;17.00;68.80;;;;;;5045601;28;19916;-79
2021/10/03 06:52:42;;;;;;;;;;;17.30;68.20;;;;;;5044959;28;20357;-79
2021/10/03 06:55:08;;;;;;;;;;;18.00;65.00;;;;;;5048689;28;19974;-81
2021/10/03 06:57:34;;;;;;;;;;;18.40;63.40;;;;;;5047468;28;19983;-79
2021/10/03 07:00:02;;;;;;;;;;;19.00;60.10;;;;;;5062606;28;19940;-79
2021/10/03 07:02:29;;;;;;;;;;;19.10;59.40;;;;;;5047238;28;19924;-79
2021/10/03 07:04:54;;;;;;;;;;;19.40;57.50;;;;;;5047998;28;19923;-78
2021/10/03 07:07:20;;;;;;;;;;;19.50;56.40;;;;;;5063714;28;19967;-80
2021/10/03 07:09:46;;;;;;;;;;;19.80;56.60;;;;;;5063036;28;19913;-79
2021/10/03 07:12:11;;;;;;;;;;;19.80;55.00;;;;;;5047002;28;19912;-79
2021/10/03 07:14:37;;;;;;;;;;;19.40;55.50;;;;;;5047542;28;19917;-78
2021/10/03 07:17:02;;;;;;;;;;;19.00;56.20;;;;;;5060816;28;19936;-78
2021/10/03 07:19:28;;;;;;;;;;;18.70;56.60;;;;;;5046126;28;19919;-79
2021/10/03 07:21:53;;;;;;;;;;;18.20;58.30;;;;;;5059588;28;20630;-78
2021/10/03 07:24:19;;;;;;;;;;;18.10;59.50;;;;;;5062238;28;19912;-79
2021/10/03 07:26:45;;;;;;;;;;;18.10;58.70;;;;;;5062028;28;19944;-80
2021/10/03 07:29:10;;;;;;;;;;;17.90;59.20;;;;;;5046987;28;19917;-80
2021/10/03 07:31:36;;;;;;;;;;;17.70;59.50;;;;;;5062334;28;20356;-78
2021/10/03 07:34:01;;;;;;;;;;;17.50;61.20;;;;;;5045555;28;20015;-79
2021/10/03 07:36:27;;;;;;;;;;;17.70;59.80;;;;;;5043844;28;20644;-79
2021/10/03 07:38:52;;;;;;;;;;;17.60;61.10;;;;;;5044907;28;19921;-79
2021/10/03 07:41:19;;;;;;;;;;;17.60;60.20;;;;;;5048314;28;19923;-79
2021/10/03 07:43:46;;;;;;;;;;;17.60;60.90;;;;;;5045333;28;19916;-79
2021/10/03 07:46:12;;;;;;;;;;;17.60;61.60;;;;;;5047636;28;19920;-79
2021/10/03 07:48:37;;;;;;;;;;;17.60;61.20;;;;;;5047332;28;19939;-78
2021/10/03 07:51:03;;;;;;;;;;;17.60;60.10;;;;;;5047539;28;19960;-78
2021/10/03 07:53:30;;;;;;;;;;;17.40;60.70;;;;;;5045971;28;20003;-79
2021/10/03 07:55:56;;;;;;;;;;;17.40;61.90;;;;;;5047260;28;20273;-78
2021/10/03 07:58:21;;;;;;;;;;;17.50;59.80;;;;;;5040598;28;19927;-79
2021/10/03 08:00:47;;;;;;;;;;;17.70;61.20;;;;;;5044851;28;19978;-81
2021/10/03 08:03:13;;;;;;;;;;;18.00;60.60;;;;;;5045943;28;20332;-79
2021/10/03 08:05:38;;;;;;;;;;;18.60;59.50;;;;;;5046811;28;20008;-78
2021/10/03 08:08:04;;;;;;;;;;;19.20;56.80;;;;;;5045670;28;20015;-78
2021/10/03 08:10:30;;;;;;;;;;;19.60;55.50;;;;;;5044821;28;19928;-79
2021/10/03 08:12:56;;;;;;;;;;;20.00;55.20;;;;;;5046346;28;19950;-78
2021/10/03 08:15:22;;;;;;;;;;;20.20;54.70;;;;;;5061613;28;20446;-79
2021/10/03 08:17:48;;;;;;;;;;;20.10;54.00;;;;;;5044834;28;20469;-78
2021/10/03 08:20:13;;;;;;;;;;;20.10;54.40;;;;;;5046190;28;20779;-79
2021/10/03 08:22:39;;;;;;;;;;;20.00;55.20;;;;;;5045066;28;19916;-78
2021/10/03 08:25:07;;;;;;;;;;;20.10;55.20;;;;;;5045704;28;19916;-79
2021/10/03 08:27:33;;;;;;;;;;;20.60;54.50;;;;;;5045808;28;19917;-79
2021/10/03 08:29:59;;;;;;;;;;;21.10;53.30;;;;;;5044319;28;19916;-79
2021/10/03 08:32:24;;;;;;;;;;;21.30;52.60;;;;;;5056384;28;19916;-79
2021/10/03 08:34:50;;;;;;;;;;;21.20;51.50;;;;;;5043634;28;19947;-79
2021/10/03 08:37:16;;;;;;;;;;;21.10;52.10;;;;;;5045763;28;20049;-77
2021/10/03 08:39:42;;;;;;;;;;;21.60;52.30;;;;;;5043953;28;19964;-76
2021/10/03 08:42:09;;;;;;;;;;;22.10;51.60;;;;;;5041038;28;19920;-78
2021/10/03 08:44:34;;;;;;;;;;;22.80;49.30;;;;;;5044340;28;19913;-78
2021/10/03 08:47:00;;;;;;;;;;;22.40;48.50;;;;;;5060916;28;20274;-78
2021/10/03 08:49:25;;;;;;;;;;;22.10;49.90;;;;;;5061388;28;20637;-78
2021/10/03 08:51:51;;;;;;;;;;;22.40;48.40;;;;;;5044166;28;20242;-78
2021/10/03 08:54:18;;;;;;;;;;;22.40;48.20;;;;;;5043496;28;19956;-79
2021/10/03 08:56:45;;;;;;;;;;;22.60;48.00;;;;;;5046392;28;19997;-78
2021/10/03 08:59:10;;;;;;;;;;;22.60;48.10;;;;;;5044328;28;19916;-77
2021/10/03 09:01:46;;;;;;;;;;;22.60;49.00;;;;;;5046371;28;19919;-78
2021/10/03 09:04:23;;;;;;;;;;;22.80;48.20;;;;;;5044533;28;19924;-78
2021/10/03 09:06:58;;;;;;;;;;;22.80;47.40;;;;;;5046295;28;19961;-78
2021/10/03 09:09:44;;;;;;;;;;;22.60;48.40;;;;;;5041844;28;19921;-78
2021/10/03 09:12:28;;;;;;;;;;;22.40;47.80;;;;;;5041263;28;19952;-78
2021/10/03 09:14:54;;;;;;;;;;;22.30;49.90;;;;;;5041935;28;20454;-78
2021/10/03 09:17:20;;;;;;;;;;;22.80;48.40;;;;;;5060620;28;19916;-79
2021/10/03 09:20:05;;;;;;;;;;;23.10;47.40;;;;;;5043381;28;19948;-79
2021/10/03 09:22:31;;;;;;;;;;;22.90;48.60;;;;;;5045322;28;20507;-78
2021/10/03 09:24:59;;;;;;;;;;;23.20;47.60;;;;;;5046003;28;19923;-78
2021/10/03 09:27:44;;;;;;;;;;;23.20;47.10;;;;;;5045995;28;19921;-79
2021/10/03 09:30:10;;;;;;;;;;;23.00;46.80;;;;;;5060037;28;19924;-79
2021/10/03 09:32:35;;;;;;;;;;;23.00;47.20;;;;;;5045801;28;20370;-78
2021/10/03 09:35:01;;;;;;;;;;;22.80;46.90;;;;;;5045937;28;19915;-79
2021/10/03 09:37:28;;;;;;;;;;;22.90;45.90;;;;;;5061684;28;19912;-79
2021/10/03 09:40:00;;;;;;;;;;;23.00;47.30;;;;;;5061835;28;19925;-79
2021/10/03 09:42:25;;;;;;;;;;;23.50;46.30;;;;;;5046329;28;19999;-78
2021/10/03 09:45:03;;;;;;;;;;;24.10;44.30;;;;;;5046677;28;20040;-80
2021/10/03 09:47:28;;;;;;;;;;;24.20;44.00;;;;;;5045709;28;20376;-78
2021/10/03 09:49:54;;;;;;;;;;;23.90;44.50;;;;;;5046567;28;19963;-80
2021/10/03 09:52:19;;;;;;;;;;;23.80;43.40;;;;;;5045666;28;19974;-79
2021/10/03 09:54:47;;;;;;;;;;;23.60;44.70;;;;;;5061931;28;19913;-79
2021/10/03 09:57:15;;;;;;;;;;;23.50;44.00;;;;;;5046130;28;20376;-79
2021/10/03 09:59:41;;;;;;;;;;;23.30;44.90;;;;;;5046465;28;19909;-78
2021/10/03 10:02:07;;;;;;;;;;;23.30;45.70;;;;;;5044866;28;19916;-79
2021/10/03 10:04:33;;;;;;;;;;;23.40;44.80;;;;;;5046204;28;19913;-79
2021/10/03 10:06:59;;;;;;;;;;;23.50;45.30;;;;;;5044817;28;20125;-79
2021/10/03 10:09:25;;;;;;;;;;;23.80;44.50;;;;;;5044904;28;19904;-79
2021/10/03 10:11:53;;;;;;;;;;;23.70;43.70;;;;;;5046306;28;19908;-78
2021/10/03 10:14:26;;;;;;;;;;;23.40;44.40;;;;;;5044952;28;19920;-79
2021/10/03 10:16:57;;;;;;;;;;;23.60;44.80;;;;;;5046403;28;19913;-78
2021/10/03 10:19:32;;;;;;;;;;;23.90;44.80;;;;;;5044791;28;19912;-79
2021/10/03 10:22:19;;;;;;;;;;;23.70;44.00;;;;;;5045410;28;19994;-80
2021/10/03 10:24:49;;;;;;;;;;;23.40;45.70;;;;;;5044819;28;19909;-78
2021/10/03 10:27:21;;;;;;;;;;;22.90;45.70;;;;;;5062927;28;19909;-79
2021/10/03 10:29:57;;;;;;;;;;;22.00;47.50;;;;;;5050180;28;19912;-79
2021/10/03 10:32:23;;;;;;;;;;;21.20;48.50;;;;;;5048714;28;19991;-79
2021/10/03 10:35:07;;;;;;;;;;;20.70;50.60;;;;;;5065757;28;20297;-78
2021/10/03 10:40:25;;;;;;;;;;;20.20;52.50;;;;;;5049297;28;20385;-80
2021/10/03 10:42:57;;;;;;;;;;;20.00;52.30;;;;;;5048951;28;19927;-79
2021/10/03 10:45:33;;;;;;;;;;;19.90;52.50;;;;;;5065250;28;20414;-79
2021/10/03 10:48:08;;;;;;;;;;;19.60;53.40;;;;;;5048526;28;20159;-79
2021/10/03 10:50:33;;;;;;;;;;;19.50;54.30;;;;;;5048078;28;19920;-82
2021/10/03 10:53:35;;;;;;;;;;;19.50;54.00;;;;;;5049211;28;19909;-82
2021/10/03 10:56:05;;;;;;;;;;;19.50;54.40;;;;;;4987533;28;19921;-82
2021/10/03 10:58:51;;;;;;;;;;;19.50;55.40;;;;;;5038926;28;19940;-82
2021/10/03 11:01:17;;;;;;;;;;;19.50;54.60;;;;;;5050948;28;19909;-82
2021/10/03 11:03:43;;;;;;;;;;;19.50;55.20;;;;;;5049613;28;19912;-82
2021/10/03 11:06:09;;;;;;;;;;;19.60;55.50;;;;;;5047178;28;20010;-81
2021/10/03 11:08:53;;;;;;;;;;;19.70;54.10;;;;;;5049471;28;20019;-81
2021/10/03 11:11:19;;;;;;;;;;;19.60;54.50;;;;;;5049640;28;20352;-81
2021/10/03 11:13:46;;;;;;;;;;;19.60;54.30;;;;;;5048802;28;19917;-81
2021/10/03 11:16:20;;;;;;;;;;;19.60;54.90;;;;;;5064207;28;20354;-81
2021/10/03 11:18:53;;;;;;;;;;;19.70;55.30;;;;;;5049225;28;19916;-81
2021/10/03 11:21:24;;;;;;;;;;;19.80;55.20;;;;;;5048660;28;19908;-80
2021/10/03 11:23:51;;;;;;;;;;;19.80;54.40;;;;;;5047581;28;19959;-81
2021/10/03 11:26:18;;;;;;;;;;;19.90;54.00;;;;;;5049046;28;20011;-82
2021/10/03 11:29:03;;;;;;;;;;;19.80;54.40;;;;;;5048967;28;19963;-82
2021/10/03 11:31:37;;;;;;;;;;;19.90;54.20;;;;;;5047597;28;19909;-79
2021/10/03 11:34:03;;;;;;;;;;;20.10;54.80;;;;;;5048816;28;19927;-79
2021/10/03 11:36:29;;;;;;;;;;;20.10;54.00;;;;;;5047314;28;19909;-79
2021/10/03 11:38:57;;;;;;;;;;;20.10;54.10;;;;;;5048451;28;20011;-78
2021/10/03 11:41:23;;;;;;;;;;;20.20;54.10;;;;;;5047126;28;19909;-79
2021/10/03 11:43:48;;;;;;;;;;;20.20;53.80;;;;;;5064156;28;19908;-79
2021/10/03 11:46:14;;;;;;;;;;;20.20;53.50;;;;;;5048507;28;19908;-78
2021/10/03 11:48:39;;;;;;;;;;;20.20;54.80;;;;;;5048654;28;19909;-79
2021/10/03 11:51:05;;;;;;;;;;;20.20;53.90;;;;;;5048064;28;19963;-80
2021/10/03 11:53:31;;;;;;;;;;;20.20;54.00;;;;;;5047313;28;20011;-80
2021/10/03 11:56:07;;;;;;;;;;;20.30;54.00;;;;;;5047348;28;20403;-79
2021/10/03 11:58:43;;;;;;;;;;;20.30;54.00;;;;;;5048189;28;19916;-79
2021/10/03 12:01:08;;;;;;;;;;;20.40;53.90;;;;;;5063566;28;19909;-79
2021/10/03 12:03:47;;;;;;;;;;;20.40;54.10;;;;;;5048488;28;20422;-78
2021/10/03 12:06:20;;;;;;;;;;;20.40;53.90;;;;;;5046369;28;20418;-79
2021/10/03 12:08:48;;;;;;;;;;;20.30;53.70;;;;;;5048458;28;19909;-79
2021/10/03 12:11:14;;;;;;;;;;;20.40;53.40;;;;;;5047102;28;19909;-78
2021/10/03 12:13:40;;;;;;;;;;;20.40;54.40;;;;;;5063179;28;20015;-79
2021/10/03 12:16:13;;;;;;;;;;;20.40;53.80;;;;;;5047951;28;19996;-79
2021/10/03 12:18:40;;;;;;;;;;;20.40;53.50;;;;;;5048057;28;19908;-80
2021/10/03 12:21:08;;;;;;;;;;;20.40;54.30;;;;;;5047787;28;19909;-79
2021/10/03 12:23:38;;;;;;;;;;;20.50;53.80;;;;;;5048209;28;19908;-78
2021/10/03 12:26:11;;;;;;;;;;;20.60;53.40;;;;;;5047714;28;19912;-79
2021/10/03 12:28:56;;;;;;;;;;;20.60;53.50;;;;;;5048198;28;20373;-79
2021/10/03 12:31:41;;;;;;;;;;;20.60;53.90;;;;;;5062972;28;20012;-79
2021/10/03 12:34:15;;;;;;;;;;;20.70;53.80;;;;;;5047696;28;19916;-79
2021/10/03 12:36:41;;;;;;;;;;;20.70;53.70;;;;;;5046371;28;19908;-80
2021/10/03 12:39:06;;;;;;;;;;;20.80;54.00;;;;;;5047313;28;19979;-79
2021/10/03 12:41:32;;;;;;;;;;;20.80;53.00;;;;;;5046652;28;19916;-78
2021/10/03 12:43:57;;;;;;;;;;;20.80;53.30;;;;;;5047755;28;20365;-79
2021/10/03 12:46:25;;;;;;;;;;;20.70;53.70;;;;;;5047331;28;20455;-78
2021/10/03 12:48:51;;;;;;;;;;;20.80;53.70;;;;;;5045995;28;19909;-79
2021/10/03 12:51:16;;;;;;;;;;;20.80;54.00;;;;;;5061943;28;19940;-79
2021/10/03 12:53:42;;;;;;;;;;;20.90;53.40;;;;;;5047704;28;20006;-78
2021/10/03 12:56:08;;;;;;;;;;;21.10;54.00;;;;;;5046945;28;20277;-79
2021/10/03 12:58:33;;;;;;;;;;;21.10;53.50;;;;;;5047594;28;19912;-80
2021/10/03 13:00:59;;;;;;;;;;;21.20;53.60;;;;;;5047195;28;19923;-80
2021/10/03 13:03:24;;;;;;;;;;;21.30;52.80;;;;;;5047229;28;19908;-79
2021/10/03 13:05:50;;;;;;;;;;;21.30;52.60;;;;;;5046964;28;19936;-79
2021/10/03 13:08:15;;;;;;;;;;;21.30;52.80;;;;;;5047467;28;19955;-79
2021/10/03 13:10:41;;;;;;;;;;;21.20;52.90;;;;;;5047171;28;19908;-79
2021/10/03 13:13:07;;;;;;;;;;;21.20;53.50;;;;;;5045979;28;19912;-79
2021/10/03 13:15:33;;;;;;;;;;;21.20;52.80;;;;;;5047446;28;19909;-77
2021/10/03 13:17:58;;;;;;;;;;;21.20;52.90;;;;;;5062558;28;19912;-79
2021/10/03 13:20:24;;;;;;;;;;;21.10;53.20;;;;;;5045458;28;19916;-79
2021/10/03 13:22:49;;;;;;;;;;;21.10;54.00;;;;;;5046760;28;20407;-80
2021/10/03 13:25:15;;;;;;;;;;;21.10;52.90;;;;;;5046894;28;19908;-79
2021/10/03 13:27:41;;;;;;;;;;;21.10;53.10;;;;;;5047136;28;19905;-79
2021/10/03 13:30:08;;;;;;;;;;;21.20;52.90;;;;;;5062380;28;19966;-80
2021/10/03 13:32:33;;;;;;;;;;;21.10;53.90;;;;;;5046445;28;19917;-80
2021/10/03 13:34:59;;;;;;;;;;;21.20;53.50;;;;;;5045409;28;20134;-79
2021/10/03 13:37:24;;;;;;;;;;;21.20;52.80;;;;;;5046742;28;19908;-78
2021/10/03 13:39:50;;;;;;;;;;;21.10;52.70;;;;;;5045498;28;20028;-79
2021/10/03 13:42:15;;;;;;;;;;;21.00;53.70;;;;;;5047028;28;19912;-79
2021/10/03 13:44:41;;;;;;;;;;;21.10;53.40;;;;;;5047044;28;19908;-79
2021/10/03 13:47:06;;;;;;;;;;;21.10;53.60;;;;;;5046714;28;20464;-80
2021/10/03 13:49:32;;;;;;;;;;;21.10;53.40;;;;;;5045477;28;19915;-78
2021/10/03 13:51:57;;;;;;;;;;;21.20;53.00;;;;;;5046486;28;20384;-79
2021/10/03 13:54:23;;;;;;;;;;;21.10;53.30;;;;;;5046748;28;19977;-79
2021/10/03 13:56:48;;;;;;;;;;;21.10;53.60;;;;;;5046105;28;20375;-78
2021/10/03 13:59:14;;;;;;;;;;;21.10;53.70;;;;;;5046786;28;19955;-79
2021/10/03 14:01:39;;;;;;;;;;;21.10;53.70;;;;;;5048445;28;19937;-80
2021/10/03 14:04:05;;;;;;;;;;;21.00;54.00;;;;;;5066019;28;19951;-80
2021/10/03 14:06:30;;;;;;;;;;;21.10;52.90;;;;;;5050705;28;20323;-79
2021/10/03 14:08:56;;;;;;;;;;;21.00;53.50;;;;;;5049823;28;19909;-80
2021/10/03 14:11:22;;;;;;;;;;;21.00;53.90;;;;;;5050414;28;19909;-79
2021/10/03 14:13:47;;;;;;;;;;;21.10;53.50;;;;;;5050563;28;19982;-78
2021/10/03 14:16:13;;;;;;;;;;;21.20;52.60;;;;;;5050406;28;20371;-80
2021/10/03 14:18:38;;;;;;;;;;;21.00;52.90;;;;;;5050647;28;19936;-79